sensor_id;sensor_type;location;lat;lon;timestamp;P1;durP1;ratioP1;P2;durP2;ratioP2
19897;SDS011;10111;50.814;4.572;2022-07-05T00:02:03;4.10;;;2.50;;
19897;SDS011;10111;50.814;4.572;2022-07-05T00:04:29;3.90;;;2.77;;
19897;SDS011;10111;50.814;4.572;2022-07-05T00:06:55;2.60;;;2.40;;
19897;SDS011;10111;50.814;4.572;2022-07-05T00:09:39;3.53;;;2.80;;
19897;SDS011;10111;50.814;4.572;2022-07-05T00:12:05;3.33;;;2.23;;
19897;SDS011;10111;50.814;4.572;2022-07-05T00:14:30;3.67;;;2.67;;
19897;SDS011;10111;50.814;4.572;2022-07-05T00:16:56;2.63;;;2.43;;
19897;SDS011;10111;50.814;4.572;2022-07-05T00:19:22;2.30;;;2.10;;
19897;SDS011;10111;50.814;4.572;2022-07-05T00:21:47;3.63;;;2.30;;
19897;SDS011;10111;50.814;4.572;2022-07-05T00:24:13;4.83;;;2.60;;
19897;SDS011;10111;50.814;4.572;2022-07-05T00:26:39;3.13;;;2.60;;
19897;SDS011;10111;50.814;4.572;2022-07-05T00:29:04;3.13;;;2.33;;
19897;SDS011;10111;50.814;4.572;2022-07-05T00:31:30;4.33;;;2.83;;
19897;SDS011;10111;50.814;4.572;2022-07-05T00:33:55;3.60;;;2.40;;
19897;SDS011;10111;50.814;4.572;2022-07-05T00:36:21;2.97;;;2.30;;
19897;SDS011;10111;50.814;4.572;2022-07-05T00:38:47;3.90;;;2.80;;
19897;SDS011;10111;50.814;4.572;2022-07-05T00:41:12;6.00;;;2.97;;
19897;SDS011;10111;50.814;4.572;2022-07-05T00:43:50;2.80;;;2.57;;
19897;SDS011;10111;50.814;4.572;2022-07-05T00:46:17;2.60;;;2.10;;
19897;SDS011;10111;50.814;4.572;2022-07-05T00:48:43;2.73;;;2.53;;
19897;SDS011;10111;50.814;4.572;2022-07-05T00:51:09;2.60;;;2.40;;
19897;SDS011;10111;50.814;4.572;2022-07-05T00:53:35;3.27;;;2.57;;
19897;SDS011;10111;50.814;4.572;2022-07-05T00:56:01;3.27;;;2.77;;
19897;SDS011;10111;50.814;4.572;2022-07-05T00:58:26;2.80;;;2.60;;
19897;SDS011;10111;50.814;4.572;2022-07-05T01:00:53;3.50;;;2.80;;
19897;SDS011;10111;50.814;4.572;2022-07-05T01:03:19;4.17;;;2.50;;
19897;SDS011;10111;50.814;4.572;2022-07-05T01:05:44;5.03;;;2.70;;
19897;SDS011;10111;50.814;4.572;2022-07-05T01:08:10;2.63;;;2.43;;
19897;SDS011;10111;50.814;4.572;2022-07-05T01:10:38;3.53;;;2.40;;
19897;SDS011;10111;50.814;4.572;2022-07-05T01:13:05;2.67;;;2.33;;
19897;SDS011;10111;50.814;4.572;2022-07-05T01:15:31;3.50;;;2.93;;
19897;SDS011;10111;50.814;4.572;2022-07-05T01:17:58;2.77;;;1.87;;
19897;SDS011;10111;50.814;4.572;2022-07-05T01:20:24;2.80;;;2.57;;
19897;SDS011;10111;50.814;4.572;2022-07-05T01:22:51;3.63;;;2.87;;
19897;SDS011;10111;50.814;4.572;2022-07-05T01:25:24;5.50;;;2.77;;
19897;SDS011;10111;50.814;4.572;2022-07-05T01:27:50;5.47;;;2.73;;
19897;SDS011;10111;50.814;4.572;2022-07-05T01:30:17;3.87;;;2.40;;
19897;SDS011;10111;50.814;4.572;2022-07-05T01:32:43;3.00;;;2.70;;
19897;SDS011;10111;50.814;4.572;2022-07-05T01:35:09;3.73;;;2.40;;
19897;SDS011;10111;50.814;4.572;2022-07-05T01:37:36;3.33;;;2.67;;
19897;SDS011;10111;50.814;4.572;2022-07-05T01:40:02;2.33;;;2.13;;
19897;SDS011;10111;50.814;4.572;2022-07-05T01:42:29;3.20;;;2.27;;
19897;SDS011;10111;50.814;4.572;2022-07-05T01:44:55;2.37;;;2.17;;
19897;SDS011;10111;50.814;4.572;2022-07-05T01:47:21;2.93;;;2.30;;
19897;SDS011;10111;50.814;4.572;2022-07-05T01:49:48;3.33;;;2.30;;
19897;SDS011;10111;50.814;4.572;2022-07-05T01:52:19;3.23;;;2.07;;
19897;SDS011;10111;50.814;4.572;2022-07-05T01:54:46;2.30;;;2.10;;
19897;SDS011;10111;50.814;4.572;2022-07-05T01:57:13;2.40;;;1.97;;
19897;SDS011;10111;50.814;4.572;2022-07-05T01:59:39;2.47;;;2.27;;
19897;SDS011;10111;50.814;4.572;2022-07-05T02:02:06;2.40;;;2.20;;
19897;SDS011;10111;50.814;4.572;2022-07-05T02:04:33;2.90;;;2.37;;
19897;SDS011;10111;50.814;4.572;2022-07-05T02:07:03;2.30;;;2.10;;
19897;SDS011;10111;50.814;4.572;2022-07-05T02:09:30;3.00;;;2.60;;
19897;SDS011;10111;50.814;4.572;2022-07-05T02:11:56;2.70;;;2.30;;
19897;SDS011;10111;50.814;4.572;2022-07-05T02:14:22;2.33;;;2.13;;
19897;SDS011;10111;50.814;4.572;2022-07-05T02:16:47;2.97;;;2.20;;
19897;SDS011;10111;50.814;4.572;2022-07-05T02:19:13;4.70;;;2.60;;
19897;SDS011;10111;50.814;4.572;2022-07-05T02:21:39;2.23;;;2.03;;
19897;SDS011;10111;50.814;4.572;2022-07-05T02:24:05;2.73;;;2.03;;
19897;SDS011;10111;50.814;4.572;2022-07-05T02:26:31;2.83;;;2.37;;
19897;SDS011;10111;50.814;4.572;2022-07-05T02:28:57;2.90;;;2.30;;
19897;SDS011;10111;50.814;4.572;2022-07-05T02:31:24;2.90;;;2.17;;
19897;SDS011;10111;50.814;4.572;2022-07-05T02:33:50;2.47;;;2.20;;
19897;SDS011;10111;50.814;4.572;2022-07-05T02:36:17;2.47;;;2.27;;
19897;SDS011;10111;50.814;4.572;2022-07-05T02:38:43;2.50;;;2.30;;
19897;SDS011;10111;50.814;4.572;2022-07-05T02:41:09;4.07;;;2.20;;
19897;SDS011;10111;50.814;4.572;2022-07-05T02:43:36;3.07;;;2.17;;
19897;SDS011;10111;50.814;4.572;2022-07-05T02:46:02;3.27;;;2.07;;
19897;SDS011;10111;50.814;4.572;2022-07-05T02:48:29;2.20;;;2.00;;
19897;SDS011;10111;50.814;4.572;2022-07-05T02:50:56;3.47;;;2.07;;
19897;SDS011;10111;50.814;4.572;2022-07-05T02:53:22;3.30;;;2.60;;
19897;SDS011;10111;50.814;4.572;2022-07-05T02:55:49;2.50;;;2.30;;
19897;SDS011;10111;50.814;4.572;2022-07-05T02:58:14;3.70;;;2.20;;
19897;SDS011;10111;50.814;4.572;2022-07-05T03:00:41;2.50;;;2.30;;
19897;SDS011;10111;50.814;4.572;2022-07-05T03:03:12;4.37;;;2.47;;
19897;SDS011;10111;50.814;4.572;2022-07-05T03:05:38;3.23;;;2.23;;
19897;SDS011;10111;50.814;4.572;2022-07-05T03:08:03;3.03;;;2.57;;
19897;SDS011;10111;50.814;4.572;2022-07-05T03:10:29;2.53;;;2.20;;
19897;SDS011;10111;50.814;4.572;2022-07-05T03:12:55;2.73;;;2.50;;
19897;SDS011;10111;50.814;4.572;2022-07-05T03:15:21;3.93;;;2.20;;
19897;SDS011;10111;50.814;4.572;2022-07-05T03:17:47;3.17;;;1.83;;
19897;SDS011;10111;50.814;4.572;2022-07-05T03:20:12;2.37;;;2.17;;
19897;SDS011;10111;50.814;4.572;2022-07-05T03:22:38;3.37;;;2.37;;
19897;SDS011;10111;50.814;4.572;2022-07-05T03:25:04;4.43;;;2.10;;
19897;SDS011;10111;50.814;4.572;2022-07-05T03:27:30;2.90;;;2.60;;
19897;SDS011;10111;50.814;4.572;2022-07-05T03:29:56;2.10;;;1.90;;
19897;SDS011;10111;50.814;4.572;2022-07-05T03:32:22;2.93;;;2.63;;
19897;SDS011;10111;50.814;4.572;2022-07-05T03:34:48;5.17;;;2.20;;
19897;SDS011;10111;50.814;4.572;2022-07-05T03:37:13;3.43;;;2.03;;
19897;SDS011;10111;50.814;4.572;2022-07-05T03:39:39;2.10;;;1.90;;
19897;SDS011;10111;50.814;4.572;2022-07-05T03:42:05;2.83;;;2.50;;
19897;SDS011;10111;50.814;4.572;2022-07-05T03:44:31;3.23;;;2.50;;
19897;SDS011;10111;50.814;4.572;2022-07-05T03:46:58;2.60;;;2.40;;
19897;SDS011;10111;50.814;4.572;2022-07-05T03:49:24;2.10;;;1.90;;
19897;SDS011;10111;50.814;4.572;2022-07-05T03:51:50;5.40;;;2.40;;
19897;SDS011;10111;50.814;4.572;2022-07-05T03:54:16;4.57;;;2.43;;
19897;SDS011;10111;50.814;4.572;2022-07-05T03:56:41;2.57;;;2.10;;
19897;SDS011;10111;50.814;4.572;2022-07-05T03:59:07;3.67;;;2.60;;
19897;SDS011;10111;50.814;4.572;2022-07-05T04:01:33;2.27;;;2.07;;
19897;SDS011;10111;50.814;4.572;2022-07-05T04:03:58;2.43;;;2.20;;
19897;SDS011;10111;50.814;4.572;2022-07-05T04:06:24;4.83;;;2.93;;
19897;SDS011;10111;50.814;4.572;2022-07-05T04:08:50;2.63;;;2.10;;
19897;SDS011;10111;50.814;4.572;2022-07-05T04:11:15;3.03;;;2.33;;
19897;SDS011;10111;50.814;4.572;2022-07-05T04:13:42;3.83;;;2.20;;
19897;SDS011;10111;50.814;4.572;2022-07-05T04:16:08;2.83;;;2.30;;
19897;SDS011;10111;50.814;4.572;2022-07-05T04:18:34;3.17;;;2.10;;
19897;SDS011;10111;50.814;4.572;2022-07-05T04:21:00;5.07;;;3.07;;
19897;SDS011;10111;50.814;4.572;2022-07-05T04:23:27;4.70;;;2.67;;
19897;SDS011;10111;50.814;4.572;2022-07-05T04:25:52;2.63;;;2.30;;
19897;SDS011;10111;50.814;4.572;2022-07-05T04:28:18;3.60;;;2.37;;
19897;SDS011;10111;50.814;4.572;2022-07-05T04:30:44;3.67;;;2.67;;
19897;SDS011;10111;50.814;4.572;2022-07-05T04:33:10;2.30;;;2.10;;
19897;SDS011;10111;50.814;4.572;2022-07-05T04:35:35;2.30;;;2.10;;
19897;SDS011;10111;50.814;4.572;2022-07-05T04:38:01;7.10;;;2.23;;
19897;SDS011;10111;50.814;4.572;2022-07-05T04:40:27;3.03;;;2.40;;
19897;SDS011;10111;50.814;4.572;2022-07-05T04:42:52;3.00;;;2.70;;
19897;SDS011;10111;50.814;4.572;2022-07-05T04:45:18;3.27;;;2.50;;
19897;SDS011;10111;50.814;4.572;2022-07-05T04:47:44;2.67;;;2.23;;
19897;SDS011;10111;50.814;4.572;2022-07-05T04:50:09;3.53;;;2.70;;
19897;SDS011;10111;50.814;4.572;2022-07-05T04:52:35;2.97;;;2.37;;
19897;SDS011;10111;50.814;4.572;2022-07-05T04:55:01;3.87;;;3.13;;
19897;SDS011;10111;50.814;4.572;2022-07-05T04:57:27;3.03;;;2.73;;
19897;SDS011;10111;50.814;4.572;2022-07-05T05:00:00;2.93;;;2.63;;
19897;SDS011;10111;50.814;4.572;2022-07-05T05:02:26;4.80;;;2.73;;
19897;SDS011;10111;50.814;4.572;2022-07-05T05:04:52;3.37;;;3.00;;
19897;SDS011;10111;50.814;4.572;2022-07-05T05:07:17;8.33;;;3.53;;
19897;SDS011;10111;50.814;4.572;2022-07-05T05:09:43;4.13;;;3.20;;
19897;SDS011;10111;50.814;4.572;2022-07-05T05:12:08;3.67;;;3.00;;
19897;SDS011;10111;50.814;4.572;2022-07-05T05:14:34;6.77;;;3.20;;
19897;SDS011;10111;50.814;4.572;2022-07-05T05:17:00;3.63;;;3.00;;
19897;SDS011;10111;50.814;4.572;2022-07-05T05:19:25;3.70;;;3.30;;
19897;SDS011;10111;50.814;4.572;2022-07-05T05:21:51;5.83;;;3.57;;
19897;SDS011;10111;50.814;4.572;2022-07-05T05:24:16;3.50;;;3.03;;
19897;SDS011;10111;50.814;4.572;2022-07-05T05:26:42;4.77;;;3.53;;
19897;SDS011;10111;50.814;4.572;2022-07-05T05:29:08;6.20;;;3.53;;
19897;SDS011;10111;50.814;4.572;2022-07-05T05:31:33;4.37;;;3.47;;
19897;SDS011;10111;50.814;4.572;2022-07-05T05:33:59;4.10;;;3.70;;
19897;SDS011;10111;50.814;4.572;2022-07-05T05:36:25;3.87;;;3.40;;
19897;SDS011;10111;50.814;4.572;2022-07-05T05:38:50;6.07;;;3.90;;
19897;SDS011;10111;50.814;4.572;2022-07-05T05:41:16;6.40;;;4.00;;
19897;SDS011;10111;50.814;4.572;2022-07-05T05:43:42;5.90;;;4.00;;
19897;SDS011;10111;50.814;4.572;2022-07-05T05:46:07;7.60;;;4.43;;
19897;SDS011;10111;50.814;4.572;2022-07-05T05:48:33;5.53;;;4.00;;
19897;SDS011;10111;50.814;4.572;2022-07-05T05:50:59;8.63;;;4.30;;
19897;SDS011;10111;50.814;4.572;2022-07-05T05:53:26;4.40;;;3.87;;
19897;SDS011;10111;50.814;4.572;2022-07-05T05:55:51;4.87;;;3.73;;
19897;SDS011;10111;50.814;4.572;2022-07-05T05:58:18;6.70;;;4.10;;
19897;SDS011;10111;50.814;4.572;2022-07-05T06:00:49;5.13;;;3.47;;
19897;SDS011;10111;50.814;4.572;2022-07-05T06:03:21;4.87;;;3.30;;
19897;SDS011;10111;50.814;4.572;2022-07-05T06:05:50;6.00;;;3.60;;
19897;SDS011;10111;50.814;4.572;2022-07-05T06:08:16;5.13;;;3.87;;
19897;SDS011;10111;50.814;4.572;2022-07-05T06:10:42;5.80;;;4.07;;
19897;SDS011;10111;50.814;4.572;2022-07-05T06:13:09;5.37;;;3.57;;
19897;SDS011;10111;50.814;4.572;2022-07-05T06:15:39;8.73;;;4.03;;
19897;SDS011;10111;50.814;4.572;2022-07-05T06:18:09;3.13;;;2.80;;
19897;SDS011;10111;50.814;4.572;2022-07-05T06:20:36;4.17;;;3.50;;
19897;SDS011;10111;50.814;4.572;2022-07-05T06:23:04;3.80;;;3.03;;
19897;SDS011;10111;50.814;4.572;2022-07-05T06:25:31;3.30;;;3.10;;
19897;SDS011;10111;50.814;4.572;2022-07-05T06:28:02;4.97;;;3.33;;
19897;SDS011;10111;50.814;4.572;2022-07-05T06:30:32;3.87;;;3.23;;
19897;SDS011;10111;50.814;4.572;2022-07-05T06:33:00;7.57;;;2.83;;
19897;SDS011;10111;50.814;4.572;2022-07-05T06:35:26;5.53;;;2.83;;
19897;SDS011;10111;50.814;4.572;2022-07-05T06:37:59;4.80;;;3.00;;
19897;SDS011;10111;50.814;4.572;2022-07-05T06:40:31;6.43;;;2.60;;
19897;SDS011;10111;50.814;4.572;2022-07-05T06:42:58;5.40;;;3.20;;
19897;SDS011;10111;50.814;4.572;2022-07-05T06:45:26;5.67;;;2.83;;
19897;SDS011;10111;50.814;4.572;2022-07-05T06:50:21;4.57;;;2.80;;
19897;SDS011;10111;50.814;4.572;2022-07-05T06:52:47;4.83;;;2.93;;
19897;SDS011;10111;50.814;4.572;2022-07-05T06:55:12;4.73;;;3.43;;
19897;SDS011;10111;50.814;4.572;2022-07-05T06:57:38;2.67;;;2.03;;
19897;SDS011;10111;50.814;4.572;2022-07-05T07:00:04;4.97;;;2.53;;
19897;SDS011;10111;50.814;4.572;2022-07-05T07:02:30;4.47;;;2.17;;
19897;SDS011;10111;50.814;4.572;2022-07-05T07:04:56;4.33;;;2.30;;
19897;SDS011;10111;50.814;4.572;2022-07-05T07:07:21;4.33;;;3.03;;
19897;SDS011;10111;50.814;4.572;2022-07-05T07:10:05;3.17;;;2.23;;
19897;SDS011;10111;50.814;4.572;2022-07-05T07:12:31;5.20;;;2.53;;
19897;SDS011;10111;50.814;4.572;2022-07-05T07:14:57;5.93;;;2.07;;
19897;SDS011;10111;50.814;4.572;2022-07-05T07:17:23;2.70;;;2.27;;
19897;SDS011;10111;50.814;4.572;2022-07-05T07:19:49;2.97;;;1.83;;
19897;SDS011;10111;50.814;4.572;2022-07-05T07:22:15;8.07;;;2.03;;
19897;SDS011;10111;50.814;4.572;2022-07-05T07:24:41;3.23;;;1.90;;
19897;SDS011;10111;50.814;4.572;2022-07-05T07:27:07;6.03;;;2.30;;
19897;SDS011;10111;50.814;4.572;2022-07-05T07:29:36;3.97;;;1.93;;
19897;SDS011;10111;50.814;4.572;2022-07-05T07:32:03;8.07;;;2.20;;
19897;SDS011;10111;50.814;4.572;2022-07-05T07:34:31;4.77;;;1.80;;
19897;SDS011;10111;50.814;4.572;2022-07-05T07:36:57;3.47;;;1.60;;
19897;SDS011;10111;50.814;4.572;2022-07-05T07:39:23;4.33;;;1.73;;
19897;SDS011;10111;50.814;4.572;2022-07-05T07:41:50;5.30;;;1.83;;
19897;SDS011;10111;50.814;4.572;2022-07-05T07:44:16;2.47;;;2.10;;
19897;SDS011;10111;50.814;4.572;2022-07-05T07:46:42;3.27;;;1.60;;
19897;SDS011;10111;50.814;4.572;2022-07-05T07:49:09;2.28;;;1.48;;
19897;SDS011;10111;50.814;4.572;2022-07-05T07:51:36;4.40;;;1.50;;
19897;SDS011;10111;50.814;4.572;2022-07-05T07:54:01;3.15;;;2.17;;
19897;SDS011;10111;50.814;4.572;2022-07-05T07:56:27;2.22;;;1.40;;
19897;SDS011;10111;50.814;4.572;2022-07-05T07:58:53;3.97;;;2.10;;
19897;SDS011;10111;50.814;4.572;2022-07-05T08:01:19;2.17;;;1.98;;
19897;SDS011;10111;50.814;4.572;2022-07-05T08:03:45;5.35;;;1.70;;
19897;SDS011;10111;50.814;4.572;2022-07-05T08:06:11;4.05;;;1.73;;
19897;SDS011;10111;50.814;4.572;2022-07-05T08:08:37;2.45;;;1.98;;
19897;SDS011;10111;50.814;4.572;2022-07-05T08:11:04;3.08;;;1.40;;
19897;SDS011;10111;50.814;4.572;2022-07-05T08:13:30;2.15;;;1.88;;
19897;SDS011;10111;50.814;4.572;2022-07-05T08:15:57;5.75;;;1.60;;
19897;SDS011;10111;50.814;4.572;2022-07-05T08:18:23;2.70;;;2.05;;
19897;SDS011;10111;50.814;4.572;2022-07-05T08:21:07;3.50;;;2.13;;
19897;SDS011;10111;50.814;4.572;2022-07-05T08:23:51;4.22;;;1.75;;
19897;SDS011;10111;50.814;4.572;2022-07-05T08:26:17;2.33;;;1.55;;
19897;SDS011;10111;50.814;4.572;2022-07-05T08:28:43;2.15;;;1.88;;
19897;SDS011;10111;50.814;4.572;2022-07-05T08:31:08;5.18;;;3.47;;
19897;SDS011;10111;50.814;4.572;2022-07-05T08:33:34;2.58;;;1.10;;
19897;SDS011;10111;50.814;4.572;2022-07-05T08:36:00;2.97;;;1.55;;
19897;SDS011;10111;50.814;4.572;2022-07-05T08:38:25;2.65;;;1.45;;
19897;SDS011;10111;50.814;4.572;2022-07-05T08:40:51;1.45;;;1.33;;
19897;SDS011;10111;50.814;4.572;2022-07-05T08:43:20;4.00;;;2.05;;
19897;SDS011;10111;50.814;4.572;2022-07-05T08:45:49;4.75;;;2.22;;
19897;SDS011;10111;50.814;4.572;2022-07-05T08:48:15;3.97;;;1.42;;
19897;SDS011;10111;50.814;4.572;2022-07-05T08:50:42;2.55;;;1.40;;
19897;SDS011;10111;50.814;4.572;2022-07-05T08:53:09;2.97;;;2.67;;
19897;SDS011;10111;50.814;4.572;2022-07-05T08:55:35;5.85;;;1.92;;
19897;SDS011;10111;50.814;4.572;2022-07-05T08:58:01;2.10;;;1.58;;
19897;SDS011;10111;50.814;4.572;2022-07-05T09:00:27;1.98;;;1.58;;
19897;SDS011;10111;50.814;4.572;2022-07-05T09:02:53;3.75;;;1.38;;
19897;SDS011;10111;50.814;4.572;2022-07-05T09:05:19;1.20;;;1.10;;
19897;SDS011;10111;50.814;4.572;2022-07-05T09:08:00;3.15;;;1.60;;
19897;SDS011;10111;50.814;4.572;2022-07-05T09:10:27;2.80;;;1.30;;
19897;SDS011;10111;50.814;4.572;2022-07-05T09:12:55;3.55;;;1.77;;
19897;SDS011;10111;50.814;4.572;2022-07-05T09:15:22;2.83;;;1.27;;
19897;SDS011;10111;50.814;4.572;2022-07-05T09:17:48;1.88;;;1.13;;
19897;SDS011;10111;50.814;4.572;2022-07-05T09:20:15;2.05;;;1.35;;
19897;SDS011;10111;50.814;4.572;2022-07-05T09:25:34;2.67;;;1.00;;
19897;SDS011;10111;50.814;4.572;2022-07-05T09:28:00;1.38;;;1.20;;
19897;SDS011;10111;50.814;4.572;2022-07-05T09:30:28;4.10;;;1.30;;
19897;SDS011;10111;50.814;4.572;2022-07-05T09:33:09;1.77;;;1.10;;
19897;SDS011;10111;50.814;4.572;2022-07-05T09:35:37;4.05;;;1.30;;
19897;SDS011;10111;50.814;4.572;2022-07-05T09:38:04;1.38;;;1.10;;
19897;SDS011;10111;50.814;4.572;2022-07-05T09:40:45;1.90;;;1.17;;
19897;SDS011;10111;50.814;4.572;2022-07-05T09:43:16;4.40;;;1.48;;
19897;SDS011;10111;50.814;4.572;2022-07-05T09:45:54;2.03;;;1.52;;
19897;SDS011;10111;50.814;4.572;2022-07-05T09:48:24;2.92;;;1.88;;
19897;SDS011;10111;50.814;4.572;2022-07-05T09:50:51;3.05;;;1.60;;
19897;SDS011;10111;50.814;4.572;2022-07-05T09:53:17;1.13;;;0.80;;
19897;SDS011;10111;50.814;4.572;2022-07-05T09:55:53;1.67;;;1.10;;
19897;SDS011;10111;50.814;4.572;2022-07-05T09:58:28;3.40;;;1.50;;
19897;SDS011;10111;50.814;4.572;2022-07-05T10:00:54;2.78;;;1.42;;
19897;SDS011;10111;50.814;4.572;2022-07-05T10:03:20;1.83;;;1.30;;
19897;SDS011;10111;50.814;4.572;2022-07-05T10:05:45;1.92;;;1.45;;
19897;SDS011;10111;50.814;4.572;2022-07-05T10:08:11;4.40;;;1.67;;
19897;SDS011;10111;50.814;4.572;2022-07-05T10:10:38;4.00;;;1.50;;
19897;SDS011;10111;50.814;4.572;2022-07-05T10:13:04;3.77;;;1.73;;
19897;SDS011;10111;50.814;4.572;2022-07-05T10:15:34;3.22;;;1.38;;
19897;SDS011;10111;50.814;4.572;2022-07-05T10:18:11;1.77;;;1.20;;
19897;SDS011;10111;50.814;4.572;2022-07-05T10:23:08;2.43;;;1.40;;
19897;SDS011;10111;50.814;4.572;2022-07-05T10:25:45;3.17;;;1.50;;
19897;SDS011;10111;50.814;4.572;2022-07-05T10:28:15;3.77;;;1.60;;
19897;SDS011;10111;50.814;4.572;2022-07-05T10:30:43;1.80;;;1.30;;
19897;SDS011;10111;50.814;4.572;2022-07-05T10:33:11;4.30;;;1.93;;
19897;SDS011;10111;50.814;4.572;2022-07-05T10:35:42;2.87;;;1.70;;
19897;SDS011;10111;50.814;4.572;2022-07-05T10:38:08;5.63;;;2.43;;
19897;SDS011;10111;50.814;4.572;2022-07-05T10:40:35;2.37;;;1.50;;
19897;SDS011;10111;50.814;4.572;2022-07-05T10:43:01;2.57;;;1.70;;
19897;SDS011;10111;50.814;4.572;2022-07-05T10:45:32;2.87;;;2.40;;
19897;SDS011;10111;50.814;4.572;2022-07-05T10:53:11;4.70;;;1.73;;
19897;SDS011;10111;50.814;4.572;2022-07-05T10:58:24;4.17;;;1.90;;
19897;SDS011;10111;50.814;4.572;2022-07-05T11:11:29;5.97;;;2.07;;
19897;SDS011;10111;50.814;4.572;2022-07-05T11:13:56;3.00;;;2.30;;
19897;SDS011;10111;50.814;4.572;2022-07-05T11:16:29;4.07;;;2.23;;
19897;SDS011;10111;50.814;4.572;2022-07-05T11:19:05;2.83;;;2.10;;
19897;SDS011;10111;50.814;4.572;2022-07-05T11:21:33;5.53;;;2.63;;
19897;SDS011;10111;50.814;4.572;2022-07-05T11:24:18;4.40;;;2.07;;
19897;SDS011;10111;50.814;4.572;2022-07-05T11:26:48;5.37;;;2.77;;
19897;SDS011;10111;50.814;4.572;2022-07-05T11:32:18;4.80;;;2.30;;
19897;SDS011;10111;50.814;4.572;2022-07-05T11:34:46;4.37;;;2.40;;
19897;SDS011;10111;50.814;4.572;2022-07-05T11:39:42;2.10;;;1.90;;
19897;SDS011;10111;50.814;4.572;2022-07-05T11:42:09;1.60;;;1.47;;
19897;SDS011;10111;50.814;4.572;2022-07-05T11:44:35;2.80;;;1.97;;
19897;SDS011;10111;50.814;4.572;2022-07-05T11:47:02;1.63;;;1.40;;
19897;SDS011;10111;50.814;4.572;2022-07-05T11:49:28;2.00;;;1.60;;
19897;SDS011;10111;50.814;4.572;2022-07-05T11:52:01;2.57;;;1.80;;
19897;SDS011;10111;50.814;4.572;2022-07-05T11:54:28;3.40;;;2.03;;
19897;SDS011;10111;50.814;4.572;2022-07-05T11:56:56;2.07;;;1.47;;
19897;SDS011;10111;50.814;4.572;2022-07-05T11:59:23;2.97;;;1.50;;
19897;SDS011;10111;50.814;4.572;2022-07-05T12:01:49;1.30;;;1.17;;
19897;SDS011;10111;50.814;4.572;2022-07-05T12:04:22;2.57;;;1.67;;
19897;SDS011;10111;50.814;4.572;2022-07-05T12:06:53;2.97;;;1.67;;
19897;SDS011;10111;50.814;4.572;2022-07-05T12:09:24;5.07;;;1.70;;
19897;SDS011;10111;50.814;4.572;2022-07-05T12:11:55;3.87;;;1.93;;
19897;SDS011;10111;50.814;4.572;2022-07-05T12:14:47;1.87;;;1.60;;
19897;SDS011;10111;50.814;4.572;2022-07-05T12:17:14;4.00;;;2.33;;
19897;SDS011;10111;50.814;4.572;2022-07-05T12:19:49;2.27;;;1.70;;
19897;SDS011;10111;50.814;4.572;2022-07-05T12:22:17;2.30;;;1.83;;
19897;SDS011;10111;50.814;4.572;2022-07-05T12:24:53;6.07;;;1.67;;
19897;SDS011;10111;50.814;4.572;2022-07-05T12:27:18;2.17;;;1.37;;
19897;SDS011;10111;50.814;4.572;2022-07-05T12:29:45;4.73;;;1.67;;
19897;SDS011;10111;50.814;4.572;2022-07-05T12:32:11;2.73;;;1.47;;
19897;SDS011;10111;50.814;4.572;2022-07-05T12:34:37;1.60;;;1.30;;
19897;SDS011;10111;50.814;4.572;2022-07-05T12:37:03;2.63;;;1.60;;
19897;SDS011;10111;50.814;4.572;2022-07-05T12:39:29;1.73;;;1.50;;
19897;SDS011;10111;50.814;4.572;2022-07-05T12:41:54;2.60;;;1.60;;
19897;SDS011;10111;50.814;4.572;2022-07-05T12:44:21;2.70;;;1.83;;
19897;SDS011;10111;50.814;4.572;2022-07-05T12:46:47;3.13;;;2.40;;
19897;SDS011;10111;50.814;4.572;2022-07-05T12:49:16;3.30;;;1.87;;
19897;SDS011;10111;50.814;4.572;2022-07-05T12:51:43;3.03;;;1.73;;
19897;SDS011;10111;50.814;4.572;2022-07-05T12:54:20;2.83;;;1.43;;
19897;SDS011;10111;50.814;4.572;2022-07-05T12:57:06;1.30;;;1.17;;
19897;SDS011;10111;50.814;4.572;2022-07-05T13:00:02;1.40;;;1.30;;
19897;SDS011;10111;50.814;4.572;2022-07-05T13:05:06;3.00;;;1.50;;
19897;SDS011;10111;50.814;4.572;2022-07-05T13:07:40;4.10;;;1.77;;
19897;SDS011;10111;50.814;4.572;2022-07-05T13:10:16;4.80;;;1.73;;
19897;SDS011;10111;50.814;4.572;2022-07-05T13:12:43;2.80;;;2.40;;
19897;SDS011;10111;50.814;4.572;2022-07-05T13:15:09;3.30;;;1.83;;
19897;SDS011;10111;50.814;4.572;2022-07-05T13:17:35;2.13;;;1.80;;
19897;SDS011;10111;50.814;4.572;2022-07-05T13:20:01;2.43;;;1.60;;
19897;SDS011;10111;50.814;4.572;2022-07-05T13:22:28;5.93;;;2.73;;
19897;SDS011;10111;50.814;4.572;2022-07-05T13:24:54;2.43;;;1.77;;
19897;SDS011;10111;50.814;4.572;2022-07-05T13:27:20;1.87;;;1.77;;
19897;SDS011;10111;50.814;4.572;2022-07-05T13:29:45;4.13;;;1.93;;
19897;SDS011;10111;50.814;4.572;2022-07-05T13:32:13;2.83;;;1.53;;
19897;SDS011;10111;50.814;4.572;2022-07-05T13:34:41;6.77;;;1.97;;
19897;SDS011;10111;50.814;4.572;2022-07-05T13:37:10;3.17;;;2.17;;
19897;SDS011;10111;50.814;4.572;2022-07-05T13:39:36;4.60;;;2.33;;
19897;SDS011;10111;50.814;4.572;2022-07-05T13:42:03;4.43;;;2.00;;
19897;SDS011;10111;50.814;4.572;2022-07-05T13:44:30;2.33;;;1.90;;
19897;SDS011;10111;50.814;4.572;2022-07-05T13:46:56;2.50;;;2.30;;
19897;SDS011;10111;50.814;4.572;2022-07-05T13:49:22;3.20;;;2.00;;
19897;SDS011;10111;50.814;4.572;2022-07-05T13:51:48;2.17;;;1.30;;
19897;SDS011;10111;50.814;4.572;2022-07-05T13:54:14;2.93;;;1.70;;
19897;SDS011;10111;50.814;4.572;2022-07-05T13:56:40;2.77;;;1.67;;
19897;SDS011;10111;50.814;4.572;2022-07-05T13:59:05;1.50;;;1.40;;
19897;SDS011;10111;50.814;4.572;2022-07-05T14:01:31;2.37;;;2.10;;
19897;SDS011;10111;50.814;4.572;2022-07-05T14:03:57;1.67;;;1.50;;
19897;SDS011;10111;50.814;4.572;2022-07-05T14:06:27;2.47;;;2.27;;
19897;SDS011;10111;50.814;4.572;2022-07-05T14:08:57;1.63;;;1.20;;
19897;SDS011;10111;50.814;4.572;2022-07-05T14:11:23;2.67;;;1.40;;
19897;SDS011;10111;50.814;4.572;2022-07-05T14:13:51;2.23;;;2.03;;
19897;SDS011;10111;50.814;4.572;2022-07-05T14:16:20;4.07;;;1.93;;
19897;SDS011;10111;50.814;4.572;2022-07-05T14:18:46;1.97;;;1.50;;
19897;SDS011;10111;50.814;4.572;2022-07-05T14:21:12;2.20;;;1.33;;
19897;SDS011;10111;50.814;4.572;2022-07-05T14:23:43;1.90;;;1.47;;
19897;SDS011;10111;50.814;4.572;2022-07-05T14:26:11;1.47;;;1.23;;
19897;SDS011;10111;50.814;4.572;2022-07-05T14:28:38;1.87;;;1.33;;
19897;SDS011;10111;50.814;4.572;2022-07-05T14:31:03;3.00;;;1.30;;
19897;SDS011;10111;50.814;4.572;2022-07-05T14:33:29;3.63;;;1.33;;
19897;SDS011;10111;50.814;4.572;2022-07-05T14:35:55;2.40;;;1.23;;
19897;SDS011;10111;50.814;4.572;2022-07-05T14:38:20;1.37;;;1.27;;
19897;SDS011;10111;50.814;4.572;2022-07-05T14:40:46;2.60;;;1.47;;
19897;SDS011;10111;50.814;4.572;2022-07-05T14:43:11;1.77;;;1.30;;
19897;SDS011;10111;50.814;4.572;2022-07-05T14:45:37;3.10;;;1.20;;
19897;SDS011;10111;50.814;4.572;2022-07-05T14:48:03;1.77;;;1.30;;
19897;SDS011;10111;50.814;4.572;2022-07-05T14:50:28;4.77;;;1.37;;
19897;SDS011;10111;50.814;4.572;2022-07-05T14:52:54;2.70;;;1.73;;
19897;SDS011;10111;50.814;4.572;2022-07-05T14:55:20;3.23;;;1.70;;
19897;SDS011;10111;50.814;4.572;2022-07-05T14:57:45;4.03;;;1.37;;
19897;SDS011;10111;50.814;4.572;2022-07-05T15:00:14;2.17;;;1.43;;
19897;SDS011;10111;50.814;4.572;2022-07-05T15:02:40;3.13;;;1.30;;
19897;SDS011;10111;50.814;4.572;2022-07-05T15:05:07;1.77;;;1.20;;
19897;SDS011;10111;50.814;4.572;2022-07-05T15:07:35;1.37;;;1.13;;
19897;SDS011;10111;50.814;4.572;2022-07-05T15:10:00;2.13;;;1.47;;
19897;SDS011;10111;50.814;4.572;2022-07-05T15:12:26;2.90;;;1.10;;
19897;SDS011;10111;50.814;4.572;2022-07-05T15:14:52;2.80;;;1.40;;
19897;SDS011;10111;50.814;4.572;2022-07-05T15:17:17;4.63;;;1.30;;
19897;SDS011;10111;50.814;4.572;2022-07-05T15:19:43;1.43;;;1.23;;
19897;SDS011;10111;50.814;4.572;2022-07-05T15:22:08;2.83;;;1.33;;
19897;SDS011;10111;50.814;4.572;2022-07-05T15:24:35;4.30;;;1.13;;